sensor_id;sensor_type;location;lat;lon;timestamp;temperature;humidity
13436;DHT22;6790;49.520;8.504;2023-04-23T00:00:52;12.60;99.90
13436;DHT22;6790;49.520;8.504;2023-04-23T00:03:22;12.60;99.90
13436;DHT22;6790;49.520;8.504;2023-04-23T00:05:51;12.60;99.90
13436;DHT22;6790;49.520;8.504;2023-04-23T00:08:17;12.60;99.90
13436;DHT22;6790;49.520;8.504;2023-04-23T00:10:44;12.50;99.90
13436;DHT22;6790;49.520;8.504;2023-04-23T00:13:10;12.50;99.90
13436;DHT22;6790;49.520;8.504;2023-04-23T00:15:36;12.40;99.90
13436;DHT22;6790;49.520;8.504;2023-04-23T00:18:02;12.40;99.90
13436;DHT22;6790;49.520;8.504;2023-04-23T00:20:28;12.40;99.90
13436;DHT22;6790;49.520;8.504;2023-04-23T00:22:53;12.40;99.90
13436;DHT22;6790;49.520;8.504;2023-04-23T00:25:19;12.50;99.90
13436;DHT22;6790;49.520;8.504;2023-04-23T00:27:45;12.40;99.90
13436;DHT22;6790;49.520;8.504;2023-04-23T00:30:12;12.40;99.90
13436;DHT22;6790;49.520;8.504;2023-04-23T00:32:38;12.40;99.90
13436;DHT22;6790;49.520;8.504;2023-04-23T00:35:04;12.40;99.90
13436;DHT22;6790;49.520;8.504;2023-04-23T00:37:30;12.30;99.90
13436;DHT22;6790;49.520;8.504;2023-04-23T00:39:55;12.50;99.90
13436;DHT22;6790;49.520;8.504;2023-04-23T00:42:21;12.30;99.90
13436;DHT22;6790;49.520;8.504;2023-04-23T00:44:47;12.30;99.90
13436;DHT22;6790;49.520;8.504;2023-04-23T00:47:15;12.40;99.90
13436;DHT22;6790;49.520;8.504;2023-04-23T00:49:41;12.40;99.90
13436;DHT22;6790;49.520;8.504;2023-04-23T00:52:07;12.30;99.90
13436;DHT22;6790;49.520;8.504;2023-04-23T00:54:33;12.30;99.90
13436;DHT22;6790;49.520;8.504;2023-04-23T00:56:58;12.40;99.90
13436;DHT22;6790;49.520;8.504;2023-04-23T00:59:25;12.30;99.90
13436;DHT22;6790;49.520;8.504;2023-04-23T01:01:51;12.40;99.90
13436;DHT22;6790;49.520;8.504;2023-04-23T01:04:18;12.20;99.90
13436;DHT22;6790;49.520;8.504;2023-04-23T01:06:44;12.40;99.90
13436;DHT22;6790;49.520;8.504;2023-04-23T01:09:14;12.30;99.90
13436;DHT22;6790;49.520;8.504;2023-04-23T01:11:43;12.30;99.90
13436;DHT22;6790;49.520;8.504;2023-04-23T01:14:09;12.30;99.90
13436;DHT22;6790;49.520;8.504;2023-04-23T01:16:36;12.20;99.90
13436;DHT22;6790;49.520;8.504;2023-04-23T01:19:07;12.20;99.90
13436;DHT22;6790;49.520;8.504;2023-04-23T01:21:34;12.10;99.90
13436;DHT22;6790;49.520;8.504;2023-04-23T01:24:03;12.30;99.90
13436;DHT22;6790;49.520;8.504;2023-04-23T01:26:29;12.10;99.90
13436;DHT22;6790;49.520;8.504;2023-04-23T01:28:56;12.20;99.90
13436;DHT22;6790;49.520;8.504;2023-04-23T01:31:22;12.20;99.90
13436;DHT22;6790;49.520;8.504;2023-04-23T01:33:49;12.30;99.90
13436;DHT22;6790;49.520;8.504;2023-04-23T01:36:17;12.20;99.90
13436;DHT22;6790;49.520;8.504;2023-04-23T01:38:43;12.20;99.90
13436;DHT22;6790;49.520;8.504;2023-04-23T01:41:09;12.10;99.90
13436;DHT22;6790;49.520;8.504;2023-04-23T01:43:35;12.10;99.90
13436;DHT22;6790;49.520;8.504;2023-04-23T01:46:01;12.10;99.90
13436;DHT22;6790;49.520;8.504;2023-04-23T01:48:27;12.20;99.90
13436;DHT22;6790;49.520;8.504;2023-04-23T01:50:53;12.20;99.90
13436;DHT22;6790;49.520;8.504;2023-04-23T01:53:19;12.20;99.90
13436;DHT22;6790;49.520;8.504;2023-04-23T01:55:46;12.10;99.90
13436;DHT22;6790;49.520;8.504;2023-04-23T01:58:12;12.30;99.90
13436;DHT22;6790;49.520;8.504;2023-04-23T02:00:38;12.20;99.90
13436;DHT22;6790;49.520;8.504;2023-04-23T02:03:04;12.20;99.90
13436;DHT22;6790;49.520;8.504;2023-04-23T02:05:33;12.00;99.90
13436;DHT22;6790;49.520;8.504;2023-04-23T02:08:00;12.10;99.90
13436;DHT22;6790;49.520;8.504;2023-04-23T02:10:25;12.20;99.90
13436;DHT22;6790;49.520;8.504;2023-04-23T02:12:51;12.00;99.90
13436;DHT22;6790;49.520;8.504;2023-04-23T02:15:17;12.20;99.90
13436;DHT22;6790;49.520;8.504;2023-04-23T02:17:44;12.10;99.90
13436;DHT22;6790;49.520;8.504;2023-04-23T02:20:10;12.10;99.90
13436;DHT22;6790;49.520;8.504;2023-04-23T02:22:39;12.00;99.90
13436;DHT22;6790;49.520;8.504;2023-04-23T02:25:06;12.00;99.90
13436;DHT22;6790;49.520;8.504;2023-04-23T02:27:33;12.00;99.90
13436;DHT22;6790;49.520;8.504;2023-04-23T02:29:59;12.10;99.90
13436;DHT22;6790;49.520;8.504;2023-04-23T02:32:24;12.10;99.90
13436;DHT22;6790;49.520;8.504;2023-04-23T02:34:50;12.00;99.90
13436;DHT22;6790;49.520;8.504;2023-04-23T02:37:16;12.00;99.90
13436;DHT22;6790;49.520;8.504;2023-04-23T02:39:42;12.10;99.90
13436;DHT22;6790;49.520;8.504;2023-04-23T02:42:08;12.10;99.90
13436;DHT22;6790;49.520;8.504;2023-04-23T02:44:33;11.90;99.90
13436;DHT22;6790;49.520;8.504;2023-04-23T02:46:59;12.00;99.90
13436;DHT22;6790;49.520;8.504;2023-04-23T02:49:25;12.10;99.90
13436;DHT22;6790;49.520;8.504;2023-04-23T02:51:51;12.00;99.90
13436;DHT22;6790;49.520;8.504;2023-04-23T02:54:16;11.90;99.90
13436;DHT22;6790;49.520;8.504;2023-04-23T02:56:42;12.00;99.90
13436;DHT22;6790;49.520;8.504;2023-04-23T02:59:08;12.00;99.90
13436;DHT22;6790;49.520;8.504;2023-04-23T03:01:34;11.90;99.90
13436;DHT22;6790;49.520;8.504;2023-04-23T03:04:00;11.80;99.90
13436;DHT22;6790;49.520;8.504;2023-04-23T03:06:26;11.80;99.90
13436;DHT22;6790;49.520;8.504;2023-04-23T03:08:52;11.90;99.90
13436;DHT22;6790;49.520;8.504;2023-04-23T03:11:17;11.90;99.90
13436;DHT22;6790;49.520;8.504;2023-04-23T03:13:43;11.80;99.90
13436;DHT22;6790;49.520;8.504;2023-04-23T03:16:09;11.80;99.90
13436;DHT22;6790;49.520;8.504;2023-04-23T03:18:35;11.80;99.90
13436;DHT22;6790;49.520;8.504;2023-04-23T03:21:00;11.80;99.90
13436;DHT22;6790;49.520;8.504;2023-04-23T03:23:26;11.90;99.90
13436;DHT22;6790;49.520;8.504;2023-04-23T03:25:52;11.80;99.90
13436;DHT22;6790;49.520;8.504;2023-04-23T03:28:18;11.90;99.90
13436;DHT22;6790;49.520;8.504;2023-04-23T03:30:43;11.70;99.90
13436;DHT22;6790;49.520;8.504;2023-04-23T03:33:09;11.90;99.90
13436;DHT22;6790;49.520;8.504;2023-04-23T03:35:35;11.80;99.90
13436;DHT22;6790;49.520;8.504;2023-04-23T03:38:00;11.90;99.90
13436;DHT22;6790;49.520;8.504;2023-04-23T03:40:26;11.80;99.90
13436;DHT22;6790;49.520;8.504;2023-04-23T03:42:52;11.80;99.90
13436;DHT22;6790;49.520;8.504;2023-04-23T03:45:17;11.80;99.90
13436;DHT22;6790;49.520;8.504;2023-04-23T03:47:43;11.60;99.90
13436;DHT22;6790;49.520;8.504;2023-04-23T03:50:10;11.80;99.90
13436;DHT22;6790;49.520;8.504;2023-04-23T03:52:39;11.70;99.90
13436;DHT22;6790;49.520;8.504;2023-04-23T03:55:05;11.70;99.90
13436;DHT22;6790;49.520;8.504;2023-04-23T03:57:32;11.60;99.90
13436;DHT22;6790;49.520;8.504;2023-04-23T03:59:58;11.50;99.90
13436;DHT22;6790;49.520;8.504;2023-04-23T04:02:23;11.60;99.90
13436;DHT22;6790;49.520;8.504;2023-04-23T04:04:49;11.50;99.90
13436;DHT22;6790;49.520;8.504;2023-04-23T04:07:16;11.60;99.90
13436;DHT22;6790;49.520;8.504;2023-04-23T04:09:42;11.40;99.90
13436;DHT22;6790;49.520;8.504;2023-04-23T04:12:08;11.50;99.90
13436;DHT22;6790;49.520;8.504;2023-04-23T04:14:33;11.60;99.90
13436;DHT22;6790;49.520;8.504;2023-04-23T04:16:59;11.50;99.90
13436;DHT22;6790;49.520;8.504;2023-04-23T04:19:25;11.50;99.90
13436;DHT22;6790;49.520;8.504;2023-04-23T04:21:50;11.50;99.90
13436;DHT22;6790;49.520;8.504;2023-04-23T04:24:17;11.40;99.90
13436;DHT22;6790;49.520;8.504;2023-04-23T04:26:43;11.50;99.90
13436;DHT22;6790;49.520;8.504;2023-04-23T04:29:10;11.30;99.90
13436;DHT22;6790;49.520;8.504;2023-04-23T04:31:36;11.30;99.90
13436;DHT22;6790;49.520;8.504;2023-04-23T04:34:02;11.30;99.90
13436;DHT22;6790;49.520;8.504;2023-04-23T04:36:28;11.40;99.90
13436;DHT22;6790;49.520;8.504;2023-04-23T04:38:54;11.40;99.90
13436;DHT22;6790;49.520;8.504;2023-04-23T04:41:22;11.40;99.90
13436;DHT22;6790;49.520;8.504;2023-04-23T04:43:52;11.30;99.90
13436;DHT22;6790;49.520;8.504;2023-04-23T04:46:19;11.30;99.90
13436;DHT22;6790;49.520;8.504;2023-04-23T04:48:48;11.20;99.90
13436;DHT22;6790;49.520;8.504;2023-04-23T04:51:14;11.20;99.90
13436;DHT22;6790;49.520;8.504;2023-04-23T04:53:40;11.20;99.90
13436;DHT22;6790;49.520;8.504;2023-04-23T04:56:07;11.20;99.90
13436;DHT22;6790;49.520;8.504;2023-04-23T04:58:32;11.40;99.90
13436;DHT22;6790;49.520;8.504;2023-04-23T05:00:58;11.30;99.90
13436;DHT22;6790;49.520;8.504;2023-04-23T05:03:25;11.40;99.90
13436;DHT22;6790;49.520;8.504;2023-04-23T05:05:52;11.40;99.90
13436;DHT22;6790;49.520;8.504;2023-04-23T05:08:21;11.30;99.90
13436;DHT22;6790;49.520;8.504;2023-04-23T05:10:47;11.30;99.90
13436;DHT22;6790;49.520;8.504;2023-04-23T05:13:15;11.30;99.90
13436;DHT22;6790;49.520;8.504;2023-04-23T05:15:41;11.40;99.90
13436;DHT22;6790;49.520;8.504;2023-04-23T05:18:09;11.40;99.90
13436;DHT22;6790;49.520;8.504;2023-04-23T05:20:35;11.50;99.90
13436;DHT22;6790;49.520;8.504;2023-04-23T05:23:01;11.40;99.90
13436;DHT22;6790;49.520;8.504;2023-04-23T05:25:29;11.40;99.90
13436;DHT22;6790;49.520;8.504;2023-04-23T05:27:55;11.40;99.90
13436;DHT22;6790;49.520;8.504;2023-04-23T05:30:22;11.40;99.90
13436;DHT22;6790;49.520;8.504;2023-04-23T05:32:48;11.40;99.90
13436;DHT22;6790;49.520;8.504;2023-04-23T05:35:14;11.50;99.90
13436;DHT22;6790;49.520;8.504;2023-04-23T05:37:40;11.40;99.90
13436;DHT22;6790;49.520;8.504;2023-04-23T05:40:07;11.60;99.90
13436;DHT22;6790;49.520;8.504;2023-04-23T05:42:34;11.50;99.90
13436;DHT22;6790;49.520;8.504;2023-04-23T05:45:00;11.70;99.90
13436;DHT22;6790;49.520;8.504;2023-04-23T05:47:27;11.60;99.90
13436;DHT22;6790;49.520;8.504;2023-04-23T05:49:53;11.60;99.90
13436;DHT22;6790;49.520;8.504;2023-04-23T05:52:18;11.70;99.90
13436;DHT22;6790;49.520;8.504;2023-04-23T05:54:44;11.70;99.90
13436;DHT22;6790;49.520;8.504;2023-04-23T05:57:10;11.80;99.90
13436;DHT22;6790;49.520;8.504;2023-04-23T05:59:36;11.90;99.90
13436;DHT22;6790;49.520;8.504;2023-04-23T06:02:02;11.90;99.90
13436;DHT22;6790;49.520;8.504;2023-04-23T06:04:28;12.00;99.90
13436;DHT22;6790;49.520;8.504;2023-04-23T06:06:53;12.00;99.90
13436;DHT22;6790;49.520;8.504;2023-04-23T06:09:19;12.00;99.90
13436;DHT22;6790;49.520;8.504;2023-04-23T06:11:45;12.00;99.90
13436;DHT22;6790;49.520;8.504;2023-04-23T06:14:11;12.20;99.90
13436;DHT22;6790;49.520;8.504;2023-04-23T06:16:36;12.10;99.90
13436;DHT22;6790;49.520;8.504;2023-04-23T06:19:03;12.10;99.90
13436;DHT22;6790;49.520;8.504;2023-04-23T06:21:28;12.10;99.90
13436;DHT22;6790;49.520;8.504;2023-04-23T06:23:54;12.00;99.90
13436;DHT22;6790;49.520;8.504;2023-04-23T06:26:20;12.00;99.90
13436;DHT22;6790;49.520;8.504;2023-04-23T06:28:46;11.80;99.90
13436;DHT22;6790;49.520;8.504;2023-04-23T06:31:12;11.80;99.90
13436;DHT22;6790;49.520;8.504;2023-04-23T06:33:37;11.80;99.90
13436;DHT22;6790;49.520;8.504;2023-04-23T06:36:04;11.80;99.90
13436;DHT22;6790;49.520;8.504;2023-04-23T06:38:30;12.00;99.90
13436;DHT22;6790;49.520;8.504;2023-04-23T06:40:56;12.30;99.90
13436;DHT22;6790;49.520;8.504;2023-04-23T06:43:23;12.30;99.90
13436;DHT22;6790;49.520;8.504;2023-04-23T06:45:48;12.60;99.90
13436;DHT22;6790;49.520;8.504;2023-04-23T06:48:14;12.80;99.90
13436;DHT22;6790;49.520;8.504;2023-04-23T06:50:41;13.10;99.90
13436;DHT22;6790;49.520;8.504;2023-04-23T06:53:06;13.50;99.90
13436;DHT22;6790;49.520;8.504;2023-04-23T06:55:32;14.00;99.90
13436;DHT22;6790;49.520;8.504;2023-04-23T06:57:58;14.50;99.90
13436;DHT22;6790;49.520;8.504;2023-04-23T07:00:24;14.60;99.90
13436;DHT22;6790;49.520;8.504;2023-04-23T07:02:49;14.50;99.90
13436;DHT22;6790;49.520;8.504;2023-04-23T07:05:16;14.30;99.90
13436;DHT22;6790;49.520;8.504;2023-04-23T07:07:42;14.20;99.90
13436;DHT22;6790;49.520;8.504;2023-04-23T07:10:09;14.10;99.90
13436;DHT22;6790;49.520;8.504;2023-04-23T07:12:38;14.10;99.90
13436;DHT22;6790;49.520;8.504;2023-04-23T07:15:05;14.30;99.90
13436;DHT22;6790;49.520;8.504;2023-04-23T07:17:32;14.30;99.90
13436;DHT22;6790;49.520;8.504;2023-04-23T07:19:57;14.20;99.90
13436;DHT22;6790;49.520;8.504;2023-04-23T07:22:24;14.20;99.90
13436;DHT22;6790;49.520;8.504;2023-04-23T07:24:53;14.40;99.90
13436;DHT22;6790;49.520;8.504;2023-04-23T07:27:19;14.50;99.90
13436;DHT22;6790;49.520;8.504;2023-04-23T07:29:45;14.40;99.90
13436;DHT22;6790;49.520;8.504;2023-04-23T07:32:10;14.50;99.90
13436;DHT22;6790;49.520;8.504;2023-04-23T07:34:37;14.70;99.90
13436;DHT22;6790;49.520;8.504;2023-04-23T07:37:03;14.70;99.90
13436;DHT22;6790;49.520;8.504;2023-04-23T07:39:29;14.80;99.90
13436;DHT22;6790;49.520;8.504;2023-04-23T07:41:58;14.50;99.90
13436;DHT22;6790;49.520;8.504;2023-04-23T07:44:24;14.40;99.90
13436;DHT22;6790;49.520;8.504;2023-04-23T07:46:53;14.40;99.90
13436;DHT22;6790;49.520;8.504;2023-04-23T07:49:29;14.60;99.90
13436;DHT22;6790;49.520;8.504;2023-04-23T07:51:58;15.10;99.90
13436;DHT22;6790;49.520;8.504;2023-04-23T07:54:24;15.50;99.90
13436;DHT22;6790;49.520;8.504;2023-04-23T07:57:03;15.10;99.90
13436;DHT22;6790;49.520;8.504;2023-04-23T07:59:29;14.80;99.90
13436;DHT22;6790;49.520;8.504;2023-04-23T08:01:55;14.60;99.90
13436;DHT22;6790;49.520;8.504;2023-04-23T08:04:21;14.70;99.90
13436;DHT22;6790;49.520;8.504;2023-04-23T08:06:50;14.70;99.90
13436;DHT22;6790;49.520;8.504;2023-04-23T08:09:16;14.90;99.90
13436;DHT22;6790;49.520;8.504;2023-04-23T08:11:41;15.40;99.90
13436;DHT22;6790;49.520;8.504;2023-04-23T08:14:07;15.90;99.90
13436;DHT22;6790;49.520;8.504;2023-04-23T08:16:33;15.70;99.90
13436;DHT22;6790;49.520;8.504;2023-04-23T08:18:59;15.20;99.90
13436;DHT22;6790;49.520;8.504;2023-04-23T08:21:24;15.10;99.90
13436;DHT22;6790;49.520;8.504;2023-04-23T08:23:51;15.90;99.90
13436;DHT22;6790;49.520;8.504;2023-04-23T08:26:17;15.70;99.90
13436;DHT22;6790;49.520;8.504;2023-04-23T08:28:44;16.30;99.90
13436;DHT22;6790;49.520;8.504;2023-04-23T08:31:10;16.70;99.90
13436;DHT22;6790;49.520;8.504;2023-04-23T08:33:36;16.80;99.90
13436;DHT22;6790;49.520;8.504;2023-04-23T08:36:02;16.80;99.90
13436;DHT22;6790;49.520;8.504;2023-04-23T08:38:28;17.00;99.90
13436;DHT22;6790;49.520;8.504;2023-04-23T08:40:56;17.00;99.90
13436;DHT22;6790;49.520;8.504;2023-04-23T08:46:21;17.10;99.90
13436;DHT22;6790;49.520;8.504;2023-04-23T08:48:48;16.80;99.90
13436;DHT22;6790;49.520;8.504;2023-04-23T08:51:17;16.20;99.90
13436;DHT22;6790;49.520;8.504;2023-04-23T08:53:49;15.80;99.90
13436;DHT22;6790;49.520;8.504;2023-04-23T08:56:16;16.40;99.90
13436;DHT22;6790;49.520;8.504;2023-04-23T08:58:44;16.80;99.90
13436;DHT22;6790;49.520;8.504;2023-04-23T09:01:11;17.20;99.90
13436;DHT22;6790;49.520;8.504;2023-04-23T09:03:37;17.50;99.90
13436;DHT22;6790;49.520;8.504;2023-04-23T09:06:04;17.60;99.90
13436;DHT22;6790;49.520;8.504;2023-04-23T09:08:31;18.00;99.90
13436;DHT22;6790;49.520;8.504;2023-04-23T09:11:00;18.20;99.90
13436;DHT22;6790;49.520;8.504;2023-04-23T09:13:29;17.70;99.90
13436;DHT22;6790;49.520;8.504;2023-04-23T09:15:56;17.40;99.90
13436;DHT22;6790;49.520;8.504;2023-04-23T09:18:22;17.50;99.90
13436;DHT22;6790;49.520;8.504;2023-04-23T09:20:48;17.80;99.90
13436;DHT22;6790;49.520;8.504;2023-04-23T09:23:15;17.70;99.90
13436;DHT22;6790;49.520;8.504;2023-04-23T09:25:41;17.30;99.90
13436;DHT22;6790;49.520;8.504;2023-04-23T09:28:09;17.10;99.90
13436;DHT22;6790;49.520;8.504;2023-04-23T09:30:42;17.30;99.90
13436;DHT22;6790;49.520;8.504;2023-04-23T09:33:12;17.20;99.90
13436;DHT22;6790;49.520;8.504;2023-04-23T09:35:40;17.30;99.90
13436;DHT22;6790;49.520;8.504;2023-04-23T09:38:07;17.00;99.90
13436;DHT22;6790;49.520;8.504;2023-04-23T09:40:34;16.90;99.90
13436;DHT22;6790;49.520;8.504;2023-04-23T09:43:03;16.90;99.90
13436;DHT22;6790;49.520;8.504;2023-04-23T09:45:29;17.00;99.90
13436;DHT22;6790;49.520;8.504;2023-04-23T09:47:56;17.10;99.90
13436;DHT22;6790;49.520;8.504;2023-04-23T09:50:36;17.10;99.90
13436;DHT22;6790;49.520;8.504;2023-04-23T09:53:04;16.90;99.90
13436;DHT22;6790;49.520;8.504;2023-04-23T09:55:32;17.10;99.90
13436;DHT22;6790;49.520;8.504;2023-04-23T09:58:02;17.20;99.90
13436;DHT22;6790;49.520;8.504;2023-04-23T10:00:33;17.20;99.90
13436;DHT22;6790;49.520;8.504;2023-04-23T10:03:00;17.30;99.90
13436;DHT22;6790;49.520;8.504;2023-04-23T10:05:27;17.60;99.90
13436;DHT22;6790;49.520;8.504;2023-04-23T10:07:55;17.60;99.90
13436;DHT22;6790;49.520;8.504;2023-04-23T10:10:22;17.60;99.90
13436;DHT22;6790;49.520;8.504;2023-04-23T10:12:51;17.40;99.90
13436;DHT22;6790;49.520;8.504;2023-04-23T10:15:24;17.40;99.90
13436;DHT22;6790;49.520;8.504;2023-04-23T10:17:51;17.90;99.90
13436;DHT22;6790;49.520;8.504;2023-04-23T10:20:20;18.00;99.90
13436;DHT22;6790;49.520;8.504;2023-04-23T10:22:47;17.90;99.90
13436;DHT22;6790;49.520;8.504;2023-04-23T10:25:14;18.10;99.90
13436;DHT22;6790;49.520;8.504;2023-04-23T10:27:44;18.00;99.90
13436;DHT22;6790;49.520;8.504;2023-04-23T10:30:13;18.00;99.90
13436;DHT22;6790;49.520;8.504;2023-04-23T10:32:39;18.30;99.90
13436;DHT22;6790;49.520;8.504;2023-04-23T10:35:06;18.30;99.90
13436;DHT22;6790;49.520;8.504;2023-04-23T10:37:34;18.30;99.90
13436;DHT22;6790;49.520;8.504;2023-04-23T10:40:46;18.30;99.90
13436;DHT22;6790;49.520;8.504;2023-04-23T10:42:54;18.50;99.90
13436;DHT22;6790;49.520;8.504;2023-04-23T10:45:20;18.30;99.90
13436;DHT22;6790;49.520;8.504;2023-04-23T10:47:46;18.20;99.90
13436;DHT22;6790;49.520;8.504;2023-04-23T10:50:27;18.20;99.90
13436;DHT22;6790;49.520;8.504;2023-04-23T10:52:54;18.10;99.90
13436;DHT22;6790;49.520;8.504;2023-04-23T10:55:29;18.10;99.90
13436;DHT22;6790;49.520;8.504;2023-04-23T10:58:00;17.80;99.90
13436;DHT22;6790;49.520;8.504;2023-04-23T11:03:25;18.20;99.90
13436;DHT22;6790;49.520;8.504;2023-04-23T11:06:04;19.00;99.90
13436;DHT22;6790;49.520;8.504;2023-04-23T11:08:31;18.90;99.90
13436;DHT22;6790;49.520;8.504;2023-04-23T11:10:59;18.90;99.90
13436;DHT22;6790;49.520;8.504;2023-04-23T11:13:26;18.70;99.90
13436;DHT22;6790;49.520;8.504;2023-04-23T11:16:12;18.50;99.90
13436;DHT22;6790;49.520;8.504;2023-04-23T11:21:54;19.10;99.90
13436;DHT22;6790;49.520;8.504;2023-04-23T11:24:22;18.70;99.90
13436;DHT22;6790;49.520;8.504;2023-04-23T11:26:51;18.30;99.90
13436;DHT22;6790;49.520;8.504;2023-04-23T11:29:24;18.30;99.90
13436;DHT22;6790;49.520;8.504;2023-04-23T11:31:53;18.50;99.90
13436;DHT22;6790;49.520;8.504;2023-04-23T11:34:22;18.50;99.90
13436;DHT22;6790;49.520;8.504;2023-04-23T11:36:51;18.80;99.90
13436;DHT22;6790;49.520;8.504;2023-04-23T11:39:22;19.30;99.90
13436;DHT22;6790;49.520;8.504;2023-04-23T11:41:49;19.30;99.90
13436;DHT22;6790;49.520;8.504;2023-04-23T11:44:20;19.80;99.90
13436;DHT22;6790;49.520;8.504;2023-04-23T11:46:49;20.00;99.90
13436;DHT22;6790;49.520;8.504;2023-04-23T11:49:18;20.00;99.90
13436;DHT22;6790;49.520;8.504;2023-04-23T11:51:45;19.80;99.90
13436;DHT22;6790;49.520;8.504;2023-04-23T11:54:13;19.80;99.90
13436;DHT22;6790;49.520;8.504;2023-04-23T11:56:42;20.00;99.90
13436;DHT22;6790;49.520;8.504;2023-04-23T11:59:08;20.10;99.90
13436;DHT22;6790;49.520;8.504;2023-04-23T12:01:48;20.40;98.10
13436;DHT22;6790;49.520;8.504;2023-04-23T12:04:19;20.70;97.70
13436;DHT22;6790;49.520;8.504;2023-04-23T12:06:52;20.40;99.90
13436;DHT22;6790;49.520;8.504;2023-04-23T12:09:20;19.90;96.70
13436;DHT22;6790;49.520;8.504;2023-04-23T12:11:49;19.90;98.50
13436;DHT22;6790;49.520;8.504;2023-04-23T12:14:16;19.60;94.90
13436;DHT22;6790;49.520;8.504;2023-04-23T12:16:44;19.10;97.40
13436;DHT22;6790;49.520;8.504;2023-04-23T12:21:48;19.80;93.30
13436;DHT22;6790;49.520;8.504;2023-04-23T12:24:15;20.30;93.80
13436;DHT22;6790;49.520;8.504;2023-04-23T12:26:41;20.40;92.80
13436;DHT22;6790;49.520;8.504;2023-04-23T12:29:08;20.50;96.00
13436;DHT22;6790;49.520;8.504;2023-04-23T12:31:37;20.70;94.80
13436;DHT22;6790;49.520;8.504;2023-04-23T12:34:08;20.70;91.60
13436;DHT22;6790;49.520;8.504;2023-04-23T12:36:35;20.60;90.80
13436;DHT22;6790;49.520;8.504;2023-04-23T12:39:37;20.60;92.70
13436;DHT22;6790;49.520;8.504;2023-04-23T12:42:04;20.90;88.00
13436;DHT22;6790;49.520;8.504;2023-04-23T12:44:33;20.90;90.20
13436;DHT22;6790;49.520;8.504;2023-04-23T12:47:05;20.40;88.30
13436;DHT22;6790;49.520;8.504;2023-04-23T12:49:33;20.20;89.50
13436;DHT22;6790;49.520;8.504;2023-04-23T12:52:01;20.80;85.50
13436;DHT22;6790;49.520;8.504;2023-04-23T12:54:30;20.60;81.10
13436;DHT22;6790;49.520;8.504;2023-04-23T12:57:04;20.60;84.70
13436;DHT22;6790;49.520;8.504;2023-04-23T12:59:31;20.90;90.00
13436;DHT22;6790;49.520;8.504;2023-04-23T13:01:58;20.60;86.30
13436;DHT22;6790;49.520;8.504;2023-04-23T13:04:28;20.50;85.00
13436;DHT22;6790;49.520;8.504;2023-04-23T13:06:54;20.90;83.60
13436;DHT22;6790;49.520;8.504;2023-04-23T13:09:20;21.30;82.20
13436;DHT22;6790;49.520;8.504;2023-04-23T13:11:48;21.50;87.00
13436;DHT22;6790;49.520;8.504;2023-04-23T13:14:14;22.10;74.00
13436;DHT22;6790;49.520;8.504;2023-04-23T13:16:43;21.70;67.20
13436;DHT22;6790;49.520;8.504;2023-04-23T13:19:09;21.70;69.00
13436;DHT22;6790;49.520;8.504;2023-04-23T13:21:37;21.60;69.60
13436;DHT22;6790;49.520;8.504;2023-04-23T13:24:03;20.60;76.60
13436;DHT22;6790;49.520;8.504;2023-04-23T13:26:29;21.00;76.90
13436;DHT22;6790;49.520;8.504;2023-04-23T13:28:57;21.30;71.20
13436;DHT22;6790;49.520;8.504;2023-04-23T13:31:24;22.30;69.30
13436;DHT22;6790;49.520;8.504;2023-04-23T13:33:50;22.00;70.30
13436;DHT22;6790;49.520;8.504;2023-04-23T13:36:16;21.80;64.70
13436;DHT22;6790;49.520;8.504;2023-04-23T13:38:43;21.10;72.10
13436;DHT22;6790;49.520;8.504;2023-04-23T13:41:09;21.10;72.00
13436;DHT22;6790;49.520;8.504;2023-04-23T13:43:34;21.70;69.70
13436;DHT22;6790;49.520;8.504;2023-04-23T13:46:00;22.20;67.30
13436;DHT22;6790;49.520;8.504;2023-04-23T13:48:26;22.40;59.70
13436;DHT22;6790;49.520;8.504;2023-04-23T13:50:56;22.20;60.10
13436;DHT22;6790;49.520;8.504;2023-04-23T13:53:22;21.20;67.70
13436;DHT22;6790;49.520;8.504;2023-04-23T13:55:48;21.30;71.50
13436;DHT22;6790;49.520;8.504;2023-04-23T13:58:14;21.50;70.10
13436;DHT22;6790;49.520;8.504;2023-04-23T14:00:41;21.60;65.90
13436;DHT22;6790;49.520;8.504;2023-04-23T14:03:07;21.50;69.90
13436;DHT22;6790;49.520;8.504;2023-04-23T14:05:33;21.00;69.10
13436;DHT22;6790;49.520;8.504;2023-04-23T14:07:59;21.10;72.60
13436;DHT22;6790;49.520;8.504;2023-04-23T14:10:25;21.10;74.70
13436;DHT22;6790;49.520;8.504;2023-04-23T14:12:51;21.30;72.50
13436;DHT22;6790;49.520;8.504;2023-04-23T14:15:18;20.90;76.60
13436;DHT22;6790;49.520;8.504;2023-04-23T14:17:44;21.10;74.70
13436;DHT22;6790;49.520;8.504;2023-04-23T14:20:11;20.80;71.00
13436;DHT22;6790;49.520;8.504;2023-04-23T14:22:40;20.70;71.30
13436;DHT22;6790;49.520;8.504;2023-04-23T14:25:14;20.60;74.00
13436;DHT22;6790;49.520;8.504;2023-04-23T14:27:44;20.70;73.30
13436;DHT22;6790;49.520;8.504;2023-04-23T14:30:18;20.60;71.10
13436;DHT22;6790;49.520;8.504;2023-04-23T14:32:45;20.50;76.10
13436;DHT22;6790;49.520;8.504;2023-04-23T14:35:14;20.00;71.20
13436;DHT22;6790;49.520;8.504;2023-04-23T14:37:41;20.10;72.20
13436;DHT22;6790;49.520;8.504;2023-04-23T14:40:12;20.30;75.30
13436;DHT22;6790;49.520;8.504;2023-04-23T14:42:46;20.40;76.80
13436;DHT22;6790;49.520;8.504;2023-04-23T14:45:14;20.30;83.50
13436;DHT22;6790;49.520;8.504;2023-04-23T14:47:42;20.40;85.80
13436;DHT22;6790;49.520;8.504;2023-04-23T14:50:13;20.30;78.30
13436;DHT22;6790;49.520;8.504;2023-04-23T14:52:40;20.40;79.30
13436;DHT22;6790;49.520;8.504;2023-04-23T14:55:09;20.10;85.30
13436;DHT22;6790;49.520;8.504;2023-04-23T14:57:35;19.80;84.20
13436;DHT22;6790;49.520;8.504;2023-04-23T15:00:01;20.00;87.60
13436;DHT22;6790;49.520;8.504;2023-04-23T15:02:27;19.80;83.10
13436;DHT22;6790;49.520;8.504;2023-04-23T15:04:53;19.80;83.50
13436;DHT22;6790;49.520;8.504;2023-04-23T15:07:19;19.50;83.00
13436;DHT22;6790;49.520;8.504;2023-04-23T15:09:45;19.40;85.00
13436;DHT22;6790;49.520;8.504;2023-04-23T15:15:37;19.60;84.40
13436;DHT22;6790;49.520;8.504;2023-04-23T15:18:03;19.50;87.20
13436;DHT22;6790;49.520;8.504;2023-04-23T15:20:30;19.60;89.80
13436;DHT22;6790;49.520;8.504;2023-04-23T15:22:55;19.50;89.00
13436;DHT22;6790;49.520;8.504;2023-04-23T15:25:21;19.40;88.20
13436;DHT22;6790;49.520;8.504;2023-04-23T15:27:48;19.30;89.00
13436;DHT22;6790;49.520;8.504;2023-04-23T15:30:21;19.20;89.30
13436;DHT22;6790;49.520;8.504;2023-04-23T15:32:47;19.30;87.20
13436;DHT22;6790;49.520;8.504;2023-04-23T15:35:12;19.40;90.00
13436;DHT22;6790;49.520;8.504;2023-04-23T15:37:38;19.50;86.10
13436;DHT22;6790;49.520;8.504;2023-04-23T15:40:04;19.40;90.00
13436;DHT22;6790;49.520;8.504;2023-04-23T15:42:31;19.40;87.80
13436;DHT22;6790;49.520;8.504;2023-04-23T15:44:57;19.20;86.30
13436;DHT22;6790;49.520;8.504;2023-04-23T15:47:23;19.30;90.00
13436;DHT22;6790;49.520;8.504;2023-04-23T15:49:51;19.20;87.80
13436;DHT22;6790;49.520;8.504;2023-04-23T15:52:17;19.10;88.20
13436;DHT22;6790;49.520;8.504;2023-04-23T15:54:43;19.10;88.00
13436;DHT22;6790;49.520;8.504;2023-04-23T15:57:09;19.10;90.20
13436;DHT22;6790;49.520;8.504;2023-04-23T15:59:35;19.00;91.90